Springboro, Pennsylvania
Current Conditions -  °F | °C
As of 10:21 AM on Saturday 22 Nov 2014 (Local Time) from KGKJ Reporting Station
Freezing Rain Freezing Rain  
Wind Chill: 17°   Ceiling: 800
Heat Index: 28°   Visibility: 3mi
Dew Point: 25°   Wind: 13mph
Humidity: 88%   Direction: 190°S
Pressure: 30.2"   Gusts: 20mph
Location:  41.8°N, 80.37°W
Report Text: KGKJ 221521Z AUTO 19011G17KT 3SM -FZRA BR OVC008 M02/M04 A3020 RMK AO2 CIG 007V011 P0002 I1001 T10221039 TSNO
Loading
Personal Weather Stations






























Interactive Weather Map New forecast layout! Learn more

10-Day Weather Forecast

Advertisements
Track Severe Weather on mobile